Time;durP1;ratioP1;P1;durP2;ratioP2;P2;SDS_P1;SDS_P2;PMS_P1;PMS_P2;Temp;Humidity;BMP_temperature;BMP_pressure;BME280_temperature;BME280_humidity;BME280_pressure;Samples;Min_cycle;Max_cycle;Signal;HPM_P1;HPM_P2
2021/01/05 00:00:22;;;;;;;50.33;19.23;;;1.20;93.30;;;;;;5042870;28;20040;-66
2021/01/05 00:02:50;;;;;;;51.78;19.58;;;1.20;93.30;;;;;;5033373;28;20032;-67
2021/01/05 00:05:16;;;;;;;80.38;28.42;;;1.20;93.10;;;;;;5037114;28;20094;-65
2021/01/05 00:07:42;;;;;;;62.75;25.45;;;1.20;93.20;;;;;;5033301;28;20460;-66
2021/01/05 00:10:09;;;;;;;45.08;18.08;;;1.20;93.40;;;;;;5034872;28;20395;-67
2021/01/05 00:12:36;;;;;;;47.28;19.10;;;1.20;93.40;;;;;;5041793;28;20536;-67
2021/01/05 00:15:03;;;;;;;53.65;21.88;;;1.20;93.20;;;;;;5040606;28;20029;-67
2021/01/05 00:17:29;;;;;;;52.55;19.02;;;1.20;93.30;;;;;;5041519;28;20037;-66
2021/01/05 00:19:55;;;;;;;53.47;19.40;;;1.20;93.30;;;;;;5038343;28;20543;-67
2021/01/05 00:22:20;;;;;;;55.28;21.77;;;1.20;93.40;;;;;;5035804;28;20029;-67
2021/01/05 00:24:46;;;;;;;50.90;18.10;;;1.20;93.60;;;;;;5033765;28;20071;-67
2021/01/05 00:27:12;;;;;;;66.35;22.67;;;1.20;93.60;;;;;;5032529;28;20025;-67
2021/01/05 00:29:39;;;;;;;57.83;20.00;;;1.20;93.60;;;;;;5034108;28;20044;-67
2021/01/05 00:32:24;;;;;;;53.20;19.17;;;1.30;93.60;;;;;;5031617;28;20464;-67
2021/01/05 00:34:51;;;;;;;48.88;18.10;;;1.30;93.60;;;;;;5044018;28;20032;-67
2021/01/05 00:37:18;;;;;;;46.03;17.55;;;1.30;93.30;;;;;;5036041;28;20044;-67
2021/01/05 00:39:45;;;;;;;43.03;15.07;;;1.20;93.20;;;;;;5032331;28;20057;-66
2021/01/05 00:42:12;;;;;;;50.70;18.73;;;1.20;93.20;;;;;;5041568;28;20041;-66
2021/01/05 00:44:37;;;;;;;55.67;18.88;;;1.20;93.20;;;;;;5041218;28;20038;-66
2021/01/05 00:47:04;;;;;;;52.13;19.20;;;1.20;93.50;;;;;;5047457;28;20494;-66
2021/01/05 00:49:30;;;;;;;55.90;19.05;;;1.20;93.60;;;;;;5047847;28;20053;-68
2021/01/05 00:51:58;;;;;;;62.58;22.05;;;1.30;93.60;;;;;;5037733;28;20022;-66
2021/01/05 00:54:24;;;;;;;64.78;21.08;;;1.30;93.60;;;;;;5043707;28;20029;-66
2021/01/05 00:57:07;;;;;;;74.10;25.00;;;1.30;93.70;;;;;;5048979;28;20048;-66
2021/01/05 00:59:33;;;;;;;58.92;20.67;;;1.30;93.70;;;;;;5050199;28;20029;-66
2021/01/05 01:02:00;;;;;;;60.65;22.45;;;1.30;93.80;;;;;;5043526;28;20452;-66
2021/01/05 01:04:26;;;;;;;63.08;21.08;;;1.40;94.00;;;;;;5031640;28;20033;-67
2021/01/05 01:06:52;;;;;;;55.70;21.63;;;1.40;93.90;;;;;;5036359;28;20033;-69
2021/01/05 01:09:18;;;;;;;56.05;20.98;;;1.40;93.80;;;;;;5033580;28;20034;-67
2021/01/05 01:12:05;;;;;;;51.08;20.52;;;1.40;93.70;;;;;;5044415;28;20028;-68
2021/01/05 01:14:32;;;;;;;55.80;19.92;;;1.40;93.70;;;;;;5042697;28;20028;-67
2021/01/05 01:16:58;;;;;;;61.17;21.95;;;1.40;93.60;;;;;;5043976;28;20064;-67
2021/01/05 01:19:24;;;;;;;61.10;21.40;;;1.40;93.60;;;;;;5040915;28;20439;-67
2021/01/05 01:21:52;;;;;;;47.55;17.13;;;1.40;93.70;;;;;;5043176;28;20063;-71
2021/01/05 01:24:19;;;;;;;54.28;18.77;;;1.50;93.70;;;;;;5043918;28;20029;-67
2021/01/05 01:26:45;;;;;;;52.85;19.70;;;1.50;93.70;;;;;;5054510;28;20506;-67
2021/01/05 01:29:15;;;;;;;54.28;19.95;;;1.50;93.60;;;;;;5048690;28;20033;-67
2021/01/05 01:31:41;;;;;;;48.20;19.55;;;1.50;93.70;;;;;;5049291;28;20193;-67
2021/01/05 01:34:06;;;;;;;61.58;24.52;;;1.50;93.60;;;;;;5051640;28;20059;-67
2021/01/05 01:36:32;;;;;;;48.45;18.10;;;1.50;93.80;;;;;;5050291;28;20479;-70
2021/01/05 01:38:58;;;;;;;44.60;17.27;;;1.50;93.70;;;;;;5046335;28;20131;-67
2021/01/05 01:41:24;;;;;;;42.05;17.40;;;1.50;93.60;;;;;;5051457;28;20493;-67
2021/01/05 01:43:49;;;;;;;47.25;20.20;;;1.50;93.60;;;;;;5038859;28;20036;-67
2021/01/05 01:46:15;;;;;;;44.33;17.25;;;1.50;93.60;;;;;;5053707;28;20032;-67
2021/01/05 01:48:42;;;;;;;44.38;16.20;;;1.60;93.80;;;;;;5047997;28;20021;-73
2021/01/05 01:51:09;;;;;;;37.42;16.58;;;1.50;93.60;;;;;;5047422;28;20056;-67
2021/01/05 01:53:57;;;;;;;37.90;16.52;;;1.50;93.50;;;;;;5046339;28;20029;-68
2021/01/05 01:56:31;;;;;;;36.00;14.20;;;1.50;93.50;;;;;;5045125;28;20039;-66
2021/01/05 01:59:13;;;;;;;35.63;15.00;;;1.50;93.50;;;;;;5046033;28;20490;-68
2021/01/05 02:01:58;;;;;;;39.25;15.88;;;1.50;93.50;;;;;;5053797;28;20079;-66
2021/01/05 02:04:45;;;;;;;50.15;18.50;;;1.50;93.60;;;;;;5053226;28;20383;-66
2021/01/05 02:07:48;;;;;;;40.30;17.17;;;1.50;93.80;;;;;;5039811;28;20053;-66
2021/01/05 02:10:45;;;;;;;36.15;16.65;;;1.50;93.70;;;;;;5041660;28;20495;-66
2021/01/05 02:13:34;;;;;;;40.65;17.05;;;1.50;93.70;;;;;;5052982;28;20037;-67
2021/01/05 02:16:26;;;;;;;40.78;17.48;;;1.60;93.90;;;;;;5050958;28;20029;-66
2021/01/05 02:19:04;;;;;;;35.85;15.43;;;1.60;93.90;;;;;;5046253;28;20025;-66
2021/01/05 02:21:41;;;;;;;44.45;17.08;;;1.60;93.90;;;;;;5049566;28;20032;-66
2021/01/05 02:24:16;;;;;;;35.47;15.93;;;1.60;93.70;;;;;;5044618;28;20421;-66
2021/01/05 02:26:46;;;;;;;40.43;16.97;;;1.60;93.80;;;;;;5039165;28;20025;-67
2021/01/05 02:29:19;;;;;;;27.25;12.40;;;1.70;93.90;;;;;;5043451;28;20426;-66
2021/01/05 02:32:09;;;;;;;40.05;16.55;;;1.70;93.80;;;;;;5047707;28;20049;-67
2021/01/05 02:34:41;;;;;;;42.53;17.42;;;1.70;93.60;;;;;;5045284;28;20029;-67
2021/01/05 02:37:20;;;;;;;40.47;17.88;;;1.70;93.70;;;;;;5048040;28;20021;-66
2021/01/05 02:40:24;;;;;;;40.25;17.75;;;1.70;93.80;;;;;;5045652;28;20372;-66
2021/01/05 02:43:03;;;;;;;42.08;17.05;;;1.70;93.80;;;;;;5058669;28;20106;-66
2021/01/05 02:45:37;;;;;;;34.88;15.70;;;1.70;93.80;;;;;;5044939;28;20034;-67
2021/01/05 02:48:22;;;;;;;40.53;15.90;;;1.80;94.00;;;;;;5039147;28;20388;-66
2021/01/05 02:51:06;;;;;;;35.70;16.45;;;1.80;93.80;;;;;;5041266;28;20044;-67
2021/01/05 02:54:26;;;;;;;46.72;22.55;;;1.80;93.60;;;;;;5040669;28;20087;-66
2021/01/05 02:57:07;;;;;;;41.78;20.27;;;1.80;93.50;;;;;;5041109;28;20042;-66
2021/01/05 02:59:54;;;;;;;49.78;22.83;;;1.70;93.40;;;;;;5042588;28;20517;-66
2021/01/05 03:02:58;;;;;;;45.45;21.23;;;1.70;93.50;;;;;;5041734;28;20021;-67
2021/01/05 03:05:23;;;;;;;36.30;16.63;;;1.70;93.60;;;;;;5053121;28;20029;-66
2021/01/05 03:07:50;;;;;;;34.88;16.00;;;1.70;93.60;;;;;;5035983;28;20026;-71
2021/01/05 03:10:25;;;;;;;36.90;15.55;;;1.70;93.50;;;;;;5041621;28;20025;-66
2021/01/05 03:12:54;;;;;;;39.20;16.63;;;1.70;93.40;;;;;;5043389;28;20405;-66
2021/01/05 03:15:45;;;;;;;37.65;15.85;;;1.70;93.20;;;;;;5045543;28;20033;-66
2021/01/05 03:18:33;;;;;;;37.67;15.85;;;1.60;93.40;;;;;;5038783;28;20036;-66
2021/01/05 03:21:08;;;;;;;45.40;17.20;;;1.60;93.50;;;;;;5044606;28;20067;-66
2021/01/05 03:23:34;;;;;;;50.33;21.45;;;1.60;93.50;;;;;;5037113;28;20049;-66
2021/01/05 03:26:06;;;;;;;48.30;20.23;;;1.70;93.70;;;;;;5039963;28;20029;-67
2021/01/05 03:28:33;;;;;;;43.15;18.85;;;1.70;93.80;;;;;;5064897;28;20022;-67
2021/01/05 03:31:17;;;;;;;51.38;21.23;;;1.70;93.60;;;;;;5039717;28;20037;-66
2021/01/05 03:33:43;;;;;;;44.70;18.02;;;1.70;93.60;;;;;;5053459;28;20021;-66
2021/01/05 03:36:10;;;;;;;38.03;17.05;;;1.70;93.50;;;;;;5047255;28;20037;-66
2021/01/05 03:38:36;;;;;;;35.97;16.30;;;1.70;93.50;;;;;;5048659;28;20505;-67
2021/01/05 03:41:02;;;;;;;42.15;18.92;;;1.70;93.40;;;;;;5049731;28;20052;-66
2021/01/05 03:43:28;;;;;;;41.92;18.60;;;1.70;93.50;;;;;;5042661;28;20120;-66
2021/01/05 03:45:54;;;;;;;41.20;18.20;;;1.70;93.60;;;;;;5043399;28;20128;-67
2021/01/05 03:48:19;;;;;;;36.80;14.55;;;1.70;93.70;;;;;;5040587;28;20375;-70
2021/01/05 03:50:45;;;;;;;31.10;16.42;;;1.70;93.70;;;;;;5039676;28;20072;-67
2021/01/05 03:53:11;;;;;;;31.20;14.43;;;1.80;93.60;;;;;;5051416;28;20040;-66
2021/01/05 03:55:37;;;;;;;38.80;16.75;;;1.70;93.50;;;;;;5041118;28;20116;-67
2021/01/05 03:58:03;;;;;;;40.15;16.02;;;1.80;93.50;;;;;;5035810;28;20128;-67
2021/01/05 04:00:29;;;;;;;35.85;16.52;;;1.80;93.50;;;;;;5047388;28;20021;-66
2021/01/05 04:02:57;;;;;;;45.28;17.83;;;1.70;93.50;;;;;;5043550;28;20017;-67
2021/01/05 04:05:25;;;;;;;39.22;17.98;;;1.80;93.50;;;;;;5050354;28;20036;-67
2021/01/05 04:07:50;;;;;;;52.47;22.65;;;1.80;93.60;;;;;;5040818;28;20020;-68
2021/01/05 04:10:16;;;;;;;66.78;28.02;;;1.80;93.70;;;;;;5040989;28;20518;-67
2021/01/05 04:12:42;;;;;;;79.95;30.25;;;1.80;93.60;;;;;;5045661;28;20036;-67
2021/01/05 04:15:14;;;;;;;81.07;29.83;;;1.80;93.70;;;;;;5040090;28;20028;-66
2021/01/05 04:17:39;;;;;;;86.00;31.00;;;1.80;93.60;;;;;;5041840;28;20028;-67
2021/01/05 04:20:06;;;;;;;94.50;32.33;;;1.80;93.40;;;;;;5041267;28;20372;-68
2021/01/05 04:22:32;;;;;;;103.10;34.92;;;1.80;93.50;;;;;;5046947;28;20036;-69
2021/01/05 04:24:58;;;;;;;92.28;32.97;;;1.80;93.60;;;;;;5043730;28;20032;-67
2021/01/05 04:27:24;;;;;;;89.57;31.52;;;1.80;93.70;;;;;;5041132;28;20029;-67
2021/01/05 04:29:49;;;;;;;58.30;23.27;;;1.90;93.80;;;;;;5035257;28;20467;-71
2021/01/05 04:32:15;;;;;;;56.00;23.25;;;1.80;93.60;;;;;;5040660;28;20025;-67
2021/01/05 04:34:41;;;;;;;64.57;26.63;;;1.80;93.50;;;;;;5045779;28;20033;-66
2021/01/05 04:37:07;;;;;;;60.75;23.73;;;1.80;93.40;;;;;;5043622;28;20051;-66
2021/01/05 04:39:32;;;;;;;69.47;28.13;;;1.90;93.60;;;;;;5042682;28;20116;-67
2021/01/05 04:42:12;;;;;;;71.15;31.80;;;1.90;93.70;;;;;;5046356;28;20037;-67
2021/01/05 04:44:55;;;;;;;72.88;29.58;;;1.90;93.70;;;;;;5057707;28;20580;-67
2021/01/05 04:47:47;;;;;;;69.25;29.98;;;1.90;93.80;;;;;;5038848;28;20025;-67
2021/01/05 04:50:19;;;;;;;69.65;31.25;;;1.90;93.90;;;;;;5047406;28;20029;-67
2021/01/05 04:52:59;;;;;;;57.15;24.52;;;2.00;93.90;;;;;;5036006;28;20029;-67
2021/01/05 04:55:40;;;;;;;64.28;26.75;;;2.00;93.90;;;;;;5045579;28;20399;-67
2021/01/05 04:58:12;;;;;;;44.97;20.17;;;2.00;93.90;;;;;;5033185;28;20030;-66
2021/01/05 05:00:41;;;;;;;51.00;24.13;;;2.10;93.80;;;;;;5046290;28;20036;-68
2021/01/05 05:03:39;;;;;;;47.00;21.85;;;2.10;93.80;;;;;;5035695;28;20026;-67
2021/01/05 05:06:26;;;;;;;43.00;19.50;;;2.10;93.80;;;;;;5038099;28;20452;-67
2021/01/05 05:09:31;;;;;;;44.40;20.30;;;2.10;93.90;;;;;;5038657;28;20033;-69
2021/01/05 05:12:12;;;;;;;39.67;19.15;;;2.10;93.90;;;;;;5041480;28;20033;-69
2021/01/05 05:14:47;;;;;;;43.30;19.02;;;2.10;94.00;;;;;;5047381;28;20455;-69
2021/01/05 05:17:15;;;;;;;43.67;19.88;;;2.20;94.10;;;;;;5042557;28;20041;-69
2021/01/05 05:20:03;;;;;;;38.28;19.45;;;2.20;93.90;;;;;;5052431;28;20029;-69
2021/01/05 05:22:54;;;;;;;44.25;21.52;;;2.20;93.80;;;;;;5045770;28;20033;-69
2021/01/05 05:25:40;;;;;;;49.65;20.65;;;2.20;93.80;;;;;;5047080;28;20068;-69
2021/01/05 05:28:12;;;;;;;54.97;24.05;;;2.20;94.00;;;;;;5041111;28;20402;-70
2021/01/05 05:30:44;;;;;;;52.80;25.00;;;2.20;94.00;;;;;;5045475;28;20049;-69
2021/01/05 05:33:25;;;;;;;49.58;23.02;;;2.20;93.90;;;;;;5041749;28;20021;-69
2021/01/05 05:36:12;;;;;;;38.05;17.58;;;2.30;94.30;;;;;;5051839;28;20172;-69
2021/01/05 05:39:15;;;;;;;41.65;18.38;;;2.30;93.90;;;;;;5046422;28;20022;-69
2021/01/05 05:41:59;;;;;;;41.78;19.92;;;2.30;93.80;;;;;;5043168;28;20369;-68
2021/01/05 05:45:06;;;;;;;41.80;18.80;;;2.30;93.70;;;;;;5038254;28;20029;-68
2021/01/05 05:47:47;;;;;;;34.43;15.47;;;2.30;93.90;;;;;;5051431;28;20033;-69
2021/01/05 05:50:44;;;;;;;33.78;16.98;;;2.20;93.80;;;;;;5043531;28;20306;-69
2021/01/05 05:53:25;;;;;;;40.85;19.75;;;2.30;93.90;;;;;;5036327;28;20483;-69
2021/01/05 05:56:02;;;;;;;35.38;19.67;;;2.30;94.10;;;;;;5036945;28;20321;-70
2021/01/05 05:58:35;;;;;;;38.33;19.48;;;2.30;94.00;;;;;;5053900;28;20051;-69
2021/01/05 06:01:03;;;;;;;35.80;17.52;;;2.30;94.10;;;;;;5038455;28;20029;-69
2021/01/05 06:03:29;;;;;;;34.00;17.33;;;2.30;94.00;;;;;;5049169;28;20025;-69
2021/01/05 06:05:55;;;;;;;47.40;23.83;;;2.30;93.90;;;;;;5053046;28;20027;-69
2021/01/05 06:08:22;;;;;;;42.25;21.88;;;2.40;93.90;;;;;;5048462;28;20111;-67
2021/01/05 06:10:50;;;;;;;39.05;18.45;;;2.40;94.00;;;;;;5042574;28;20049;-67
2021/01/05 06:13:16;;;;;;;46.53;22.17;;;2.40;94.00;;;;;;5037821;28;20136;-69
2021/01/05 06:15:42;;;;;;;45.50;23.50;;;2.40;94.00;;;;;;5041930;28;20521;-70
2021/01/05 06:18:11;;;;;;;34.83;19.00;;;2.40;94.00;;;;;;5041227;28;20025;-72
2021/01/05 06:20:37;;;;;;;38.78;19.95;;;2.40;93.90;;;;;;5052369;28;20124;-73
2021/01/05 06:23:03;;;;;;;41.13;19.85;;;2.40;93.90;;;;;;5044539;28;20112;-69
2021/01/05 06:25:29;;;;;;;49.88;26.23;;;2.40;93.80;;;;;;5053178;28;20025;-70
2021/01/05 06:27:55;;;;;;;45.40;22.17;;;2.40;93.80;;;;;;5038466;28;20517;-71
2021/01/05 06:30:21;;;;;;;53.28;27.15;;;2.40;93.80;;;;;;5041207;28;20108;-69
2021/01/05 06:32:47;;;;;;;39.85;20.65;;;2.50;93.80;;;;;;5049720;28;20072;-70
2021/01/05 06:35:16;;;;;;;46.30;22.58;;;2.50;93.80;;;;;;5053802;28;20102;-71
2021/01/05 06:37:42;;;;;;;61.50;30.52;;;2.50;93.80;;;;;;5055082;28;20091;-70
2021/01/05 06:40:09;;;;;;;47.25;24.17;;;2.50;93.80;;;;;;5053287;28;20045;-73
2021/01/05 06:42:36;;;;;;;51.40;24.60;;;2.50;93.80;;;;;;5054747;28;20024;-70
2021/01/05 06:45:07;;;;;;;43.72;21.42;;;2.50;93.80;;;;;;5049104;28;20025;-70
2021/01/05 06:47:33;;;;;;;74.50;33.83;;;2.50;93.90;;;;;;5052247;28;20033;-70
2021/01/05 06:49:59;;;;;;;65.22;31.48;;;2.50;93.80;;;;;;5052448;28;20367;-70
2021/01/05 06:52:25;;;;;;;39.78;20.17;;;2.50;93.70;;;;;;5055053;28;20032;-69
2021/01/05 06:54:51;;;;;;;37.65;18.08;;;2.50;93.70;;;;;;5054988;28;20029;-69
2021/01/05 06:57:17;;;;;;;36.65;16.85;;;2.50;93.70;;;;;;5053284;28;20025;-69
2021/01/05 06:59:43;;;;;;;61.67;28.73;;;2.50;93.70;;;;;;5053304;28;20036;-70
2021/01/05 07:02:09;;;;;;;52.95;25.92;;;2.50;93.70;;;;;;5054051;28;20025;-70
2021/01/05 07:04:35;;;;;;;39.20;19.58;;;2.50;93.70;;;;;;5054738;28;20032;-69
2021/01/05 07:07:02;;;;;;;43.88;21.98;;;2.50;93.80;;;;;;5054605;28;20086;-70
2021/01/05 07:09:29;;;;;;;38.38;20.83;;;2.50;93.70;;;;;;5054445;28;20064;-70
2021/01/05 07:11:55;;;;;;;38.22;18.33;;;2.50;93.70;;;;;;5052854;28;20029;-70
2021/01/05 07:14:25;;;;;;;46.17;23.27;;;2.50;93.70;;;;;;5053039;28;20028;-70
2021/01/05 07:16:52;;;;;;;39.13;20.10;;;2.50;93.60;;;;;;5052821;28;20021;-69
2021/01/05 07:19:17;;;;;;;52.08;22.38;;;2.50;93.60;;;;;;5052799;28;20029;-69
2021/01/05 07:21:43;;;;;;;31.52;16.70;;;2.50;93.70;;;;;;5052249;28;20017;-69
2021/01/05 07:24:11;;;;;;;46.08;23.48;;;2.50;93.30;;;;;;5054005;28;20044;-69
2021/01/05 07:26:39;;;;;;;34.55;18.23;;;2.50;93.30;;;;;;5052613;28;20025;-69
2021/01/05 07:29:05;;;;;;;38.17;18.80;;;2.40;93.30;;;;;;5053853;28;20025;-69
2021/01/05 07:31:31;;;;;;;41.17;19.98;;;2.40;93.20;;;;;;5054299;28;20036;-69
2021/01/05 07:33:57;;;;;;;45.75;22.58;;;2.40;93.10;;;;;;5053722;28;20028;-69
2021/01/05 07:36:36;;;;;;;46.38;24.58;;;2.30;93.10;;;;;;5052787;28;20025;-69
2021/01/05 07:39:21;;;;;;;51.47;24.08;;;2.30;93.10;;;;;;5041403;28;20029;-69
2021/01/05 07:41:48;;;;;;;41.80;20.05;;;2.30;93.30;;;;;;5053464;28;20494;-69
2021/01/05 07:44:15;;;;;;;27.70;15.23;;;2.30;93.40;;;;;;5052765;28;20078;-69
2021/01/05 07:46:41;;;;;;;31.30;16.90;;;2.30;93.20;;;;;;5052537;28;20029;-69
2021/01/05 07:49:08;;;;;;;44.47;21.85;;;2.30;93.10;;;;;;5052382;28;20033;-69
2021/01/05 07:51:34;;;;;;;40.72;21.77;;;2.20;93.00;;;;;;5052283;28;20120;-69
2021/01/05 07:54:00;;;;;;;48.95;19.80;;;2.20;93.00;;;;;;5051980;28;20112;-69
2021/01/05 07:56:26;;;;;;;44.42;21.83;;;2.20;92.90;;;;;;5053408;28;20029;-69
2021/01/05 07:58:52;;;;;;;64.60;30.02;;;2.20;93.10;;;;;;5053396;28;20035;-69
2021/01/05 08:01:17;;;;;;;75.25;34.97;;;2.20;93.20;;;;;;5053364;28;20044;-69
2021/01/05 08:03:43;;;;;;;108.38;46.58;;;2.20;93.20;;;;;;5052184;28;20036;-69
2021/01/05 08:06:10;;;;;;;54.13;25.60;;;2.20;93.30;;;;;;5052129;28;20970;-69
2021/01/05 08:08:36;;;;;;;53.50;26.48;;;2.20;93.40;;;;;;5053259;28;20025;-69
2021/01/05 08:11:01;;;;;;;73.30;34.88;;;2.30;93.20;;;;;;5051594;28;20486;-69
2021/01/05 08:13:27;;;;;;;53.15;26.63;;;2.20;93.10;;;;;;5052191;28;20032;-68
2021/01/05 08:15:53;;;;;;;59.22;27.30;;;2.30;93.10;;;;;;5052997;28;20364;-68
2021/01/05 08:18:19;;;;;;;53.95;25.50;;;2.20;93.00;;;;;;5051684;28;20028;-69
2021/01/05 08:20:44;;;;;;;47.90;21.45;;;2.20;93.00;;;;;;5053103;28;20036;-68
2021/01/05 08:23:10;;;;;;;55.92;29.08;;;2.20;92.90;;;;;;5052898;28;20490;-68
2021/01/05 08:25:36;;;;;;;43.67;21.85;;;2.20;92.80;;;;;;5051732;28;20024;-68
2021/01/05 08:28:03;;;;;;;48.80;22.77;;;2.20;92.90;;;;;;5051461;28;20025;-69
2021/01/05 08:30:31;;;;;;;45.40;21.75;;;2.20;93.00;;;;;;5052890;28;20029;-68
2021/01/05 08:33:06;;;;;;;52.60;21.20;;;2.20;93.00;;;;;;5050790;28;20376;-68
2021/01/05 08:35:33;;;;;;;41.72;19.77;;;2.20;92.90;;;;;;5051654;28;20032;-69
2021/01/05 08:37:59;;;;;;;49.03;22.27;;;2.20;92.80;;;;;;5052643;28;20051;-69
2021/01/05 08:40:28;;;;;;;58.17;28.20;;;2.20;92.70;;;;;;5052586;28;20048;-68
2021/01/05 08:42:58;;;;;;;56.92;25.92;;;2.20;92.80;;;;;;5051730;28;20025;-69
2021/01/05 08:45:24;;;;;;;50.70;22.83;;;2.20;92.80;;;;;;5052880;28;20025;-69
2021/01/05 08:47:50;;;;;;;65.47;27.40;;;2.10;92.80;;;;;;5052584;28;20036;-69
2021/01/05 08:50:20;;;;;;;51.92;24.25;;;2.20;92.70;;;;;;5051350;28;20032;-70
2021/01/05 08:52:46;;;;;;;49.78;24.67;;;2.20;92.60;;;;;;5052864;28;20372;-69
2021/01/05 08:55:12;;;;;;;59.17;27.80;;;2.10;92.50;;;;;;5052853;28;20029;-69
2021/01/05 08:57:38;;;;;;;97.07;39.95;;;2.10;92.60;;;;;;5052727;28;20033;-68
2021/01/05 09:00:05;;;;;;;52.05;24.85;;;2.10;92.90;;;;;;5052573;28;20486;-69
2021/01/05 09:02:31;;;;;;;56.80;23.92;;;2.10;92.70;;;;;;5052588;28;20025;-68
2021/01/05 09:04:57;;;;;;;61.40;27.55;;;2.10;92.50;;;;;;5051441;28;20056;-69
2021/01/05 09:07:23;;;;;;;50.60;24.40;;;2.00;92.60;;;;;;5052859;28;20371;-69
2021/01/05 09:09:48;;;;;;;68.90;29.80;;;2.00;92.50;;;;;;5051353;28;20025;-69
2021/01/05 09:12:14;;;;;;;50.92;23.48;;;2.00;92.50;;;;;;5052724;28;20060;-69
2021/01/05 09:14:40;;;;;;;59.33;24.95;;;1.90;92.60;;;;;;5051330;28;20482;-69
2021/01/05 09:17:06;;;;;;;59.00;26.63;;;2.00;92.50;;;;;;5051549;28;20041;-69
2021/01/05 09:19:32;;;;;;;55.95;26.70;;;1.90;92.60;;;;;;5050811;28;20025;-69
2021/01/05 09:21:58;;;;;;;61.05;28.15;;;1.90;92.60;;;;;;5050812;28;20029;-68
2021/01/05 09:24:25;;;;;;;89.18;35.20;;;1.90;92.50;;;;;;5051418;28;20025;-69
2021/01/05 09:26:55;;;;;;;82.22;35.67;;;1.90;92.60;;;;;;5052252;28;20479;-68
2021/01/05 09:29:23;;;;;;;108.88;43.65;;;1.90;92.60;;;;;;5051167;28;20025;-69
2021/01/05 09:31:51;;;;;;;55.65;25.92;;;1.90;92.70;;;;;;5050930;28;20112;-69
2021/01/05 09:34:20;;;;;;;90.60;38.17;;;1.90;92.60;;;;;;5052253;28;20033;-69
2021/01/05 09:36:46;;;;;;;73.07;29.63;;;1.90;92.70;;;;;;5052350;28;20448;-68
2021/01/05 09:39:17;;;;;;;70.30;28.88;;;1.90;92.70;;;;;;5051367;28;20053;-69
2021/01/05 09:41:47;;;;;;;83.43;32.60;;;1.90;92.70;;;;;;5051331;28;20395;-68
2021/01/05 09:44:13;;;;;;;69.00;28.58;;;1.90;92.70;;;;;;5052922;28;20079;-68
2021/01/05 09:46:39;;;;;;;74.15;32.55;;;1.90;92.70;;;;;;5055683;28;20029;-70
2021/01/05 09:49:15;;;;;;;74.20;30.30;;;1.90;92.70;;;;;;5054759;28;20021;-68
2021/01/05 09:51:41;;;;;;;63.08;26.75;;;1.90;92.70;;;;;;5056373;28;20033;-69
2021/01/05 09:54:07;;;;;;;69.18;29.77;;;1.90;92.40;;;;;;5054306;28;20021;-70
2021/01/05 09:56:33;;;;;;;59.63;25.42;;;1.90;92.50;;;;;;5054495;28;20528;-70
2021/01/05 09:58:59;;;;;;;71.07;28.15;;;1.90;92.60;;;;;;5055554;28;20021;-68
2021/01/05 10:01:31;;;;;;;81.50;33.40;;;1.90;92.50;;;;;;5056187;28;20024;-68
2021/01/05 10:03:56;;;;;;;78.30;33.05;;;1.80;92.40;;;;;;5054239;28;20033;-69
2021/01/05 10:06:28;;;;;;;75.88;31.25;;;1.80;92.50;;;;;;5054717;28;20384;-68
2021/01/05 10:08:54;;;;;;;71.18;27.88;;;1.80;92.50;;;;;;5055428;28;20040;-69
2021/01/05 10:11:20;;;;;;;80.25;34.80;;;1.80;92.40;;;;;;5055470;28;20029;-70
2021/01/05 10:13:45;;;;;;;72.65;31.98;;;1.80;92.40;;;;;;5054140;28;20394;-70
2021/01/05 10:16:12;;;;;;;69.05;29.92;;;1.80;92.30;;;;;;5053960;28;20543;-68
2021/01/05 10:18:38;;;;;;;63.42;24.33;;;1.70;92.20;;;;;;5055234;28;20021;-68
2021/01/05 10:21:04;;;;;;;70.70;30.55;;;1.70;92.10;;;;;;5054319;28;20029;-69
2021/01/05 10:23:29;;;;;;;70.07;30.90;;;1.60;92.20;;;;;;5053812;28;20471;-69
2021/01/05 10:25:55;;;;;;;99.18;39.00;;;1.60;92.10;;;;;;5053878;28;20021;-69
2021/01/05 10:28:21;;;;;;;80.88;33.83;;;1.60;92.30;;;;;;5055493;28;20017;-69
2021/01/05 10:30:46;;;;;;;78.57;31.45;;;1.70;92.60;;;;;;5055313;28;20028;-69
2021/01/05 10:33:13;;;;;;;70.40;30.45;;;1.70;92.60;;;;;;5055062;28;20029;-69
2021/01/05 10:35:38;;;;;;;77.50;31.73;;;1.70;92.50;;;;;;5053899;28;20410;-69
2021/01/05 10:38:04;;;;;;;78.68;31.42;;;1.70;92.50;;;;;;5053770;28;20037;-69
2021/01/05 10:40:30;;;;;;;74.38;30.45;;;1.70;92.40;;;;;;5054997;28;20447;-68
2021/01/05 10:42:56;;;;;;;68.13;26.90;;;1.70;92.50;;;;;;5054807;28;20470;-69
2021/01/05 10:45:25;;;;;;;57.85;23.33;;;1.70;92.40;;;;;;5055168;28;20096;-69
2021/01/05 10:47:52;;;;;;;64.10;26.33;;;1.70;92.10;;;;;;5053419;28;20056;-68
2021/01/05 10:50:22;;;;;;;70.72;27.73;;;1.60;92.10;;;;;;5053450;28;20455;-69
2021/01/05 10:52:49;;;;;;;71.53;29.33;;;1.60;92.20;;;;;;5053874;28;20025;-70
2021/01/05 10:55:16;;;;;;;81.03;31.60;;;1.60;92.20;;;;;;5052991;28;20090;-69
2021/01/05 10:57:42;;;;;;;65.15;25.77;;;1.60;92.20;;;;;;5053025;28;20455;-69
2021/01/05 11:00:09;;;;;;;69.28;27.70;;;1.60;92.10;;;;;;5053250;28;20395;-69
2021/01/05 11:02:35;;;;;;;72.30;30.85;;;1.60;92.20;;;;;;5053249;28;20020;-70
2021/01/05 11:05:01;;;;;;;76.25;31.50;;;1.60;92.20;;;;;;5054798;28;20467;-69
2021/01/05 11:07:26;;;;;;;76.57;31.15;;;1.60;92.30;;;;;;5053105;28;20482;-69
2021/01/05 11:09:52;;;;;;;78.47;32.08;;;1.60;92.30;;;;;;5054095;28;20025;-69
2021/01/05 11:12:25;;;;;;;66.90;25.45;;;1.70;92.40;;;;;;5054073;28;20029;-69
2021/01/05 11:14:51;;;;;;;67.97;26.35;;;1.60;92.20;;;;;;5054554;28;20017;-70
2021/01/05 11:17:17;;;;;;;79.57;33.08;;;1.60;91.90;;;;;;5054155;28;20166;-70
2021/01/05 11:19:44;;;;;;;79.70;33.15;;;1.60;91.90;;;;;;5053893;28;20029;-69
2021/01/05 11:22:14;;;;;;;70.18;29.05;;;1.50;92.10;;;;;;5052800;28;20083;-69
2021/01/05 11:24:40;;;;;;;80.82;31.85;;;1.50;92.10;;;;;;5053917;28;20115;-70
2021/01/05 11:27:07;;;;;;;79.65;32.72;;;1.50;92.10;;;;;;5053006;28;20025;-69
2021/01/05 11:29:34;;;;;;;76.90;31.23;;;1.50;92.20;;;;;;5054090;28;20108;-69
2021/01/05 11:32:03;;;;;;;63.58;26.17;;;1.50;92.10;;;;;;5053487;28;20032;-69
2021/01/05 11:34:30;;;;;;;62.20;25.23;;;1.50;92.00;;;;;;5054011;28;20028;-69
2021/01/05 11:37:04;;;;;;;64.57;25.80;;;1.50;92.00;;;;;;5052531;28;20032;-70
2021/01/05 11:39:30;;;;;;;83.18;34.65;;;1.50;92.10;;;;;;5052509;28;20113;-69
2021/01/05 11:41:59;;;;;;;80.55;33.67;;;1.40;92.00;;;;;;5052355;28;20511;-69
2021/01/05 11:44:27;;;;;;;71.25;27.45;;;1.50;92.20;;;;;;5053905;28;20024;-69
2021/01/05 11:46:53;;;;;;;71.07;30.00;;;1.50;92.10;;;;;;5053504;28;20032;-69
2021/01/05 11:49:19;;;;;;;84.22;34.90;;;1.50;92.20;;;;;;5052311;28;20364;-69
2021/01/05 11:51:50;;;;;;;76.05;29.15;;;1.50;92.40;;;;;;5053244;28;20029;-69
2021/01/05 11:54:15;;;;;;;79.57;31.13;;;1.50;92.30;;;;;;5054130;28;20033;-69
2021/01/05 11:56:41;;;;;;;75.18;29.73;;;1.50;92.30;;;;;;5053626;28;20040;-68
2021/01/05 11:59:07;;;;;;;59.70;28.02;;;1.50;92.20;;;;;;5052118;28;20029;-68
2021/01/05 12:01:35;;;;;;;67.15;28.98;;;1.60;92.20;;;;;;5052221;28;20494;-70
2021/01/05 12:04:07;;;;;;;66.82;27.33;;;1.60;92.20;;;;;;5051931;28;20040;-70
2021/01/05 12:06:33;;;;;;;74.60;29.13;;;1.50;92.10;;;;;;5052311;28;20036;-68
2021/01/05 12:08:59;;;;;;;73.75;30.15;;;1.60;92.20;;;;;;5052061;28;20029;-69
2021/01/05 12:11:31;;;;;;;61.17;25.08;;;1.50;92.10;;;;;;5051983;28;20029;-69
2021/01/05 12:13:57;;;;;;;83.75;34.05;;;1.60;92.20;;;;;;5051542;28;20043;-69
2021/01/05 12:16:37;;;;;;;62.65;26.33;;;1.60;92.20;;;;;;5051936;28;20386;-69
2021/01/05 12:19:06;;;;;;;59.55;24.48;;;1.60;92.20;;;;;;5051653;28;20467;-69
2021/01/05 12:21:37;;;;;;;66.97;26.95;;;1.60;92.10;;;;;;5052860;28;20425;-69
2021/01/05 12:24:05;;;;;;;58.08;23.70;;;1.50;92.00;;;;;;5051791;28;20056;-69
2021/01/05 12:26:39;;;;;;;69.00;27.10;;;1.50;91.90;;;;;;5051684;28;20021;-69
2021/01/05 12:29:14;;;;;;;64.90;26.35;;;1.50;92.10;;;;;;5052909;28;20051;-69
2021/01/05 12:31:46;;;;;;;75.88;29.55;;;1.50;92.10;;;;;;5051882;28;20551;-69
2021/01/05 12:34:13;;;;;;;68.70;27.17;;;1.50;92.10;;;;;;5051511;28;20025;-70
2021/01/05 12:36:42;;;;;;;60.05;25.95;;;1.50;92.20;;;;;;5051456;28;20068;-69
2021/01/05 12:39:36;;;;;;;72.13;27.30;;;1.50;92.10;;;;;;5051595;28;20051;-69
2021/01/05 12:42:19;;;;;;;70.13;27.75;;;1.40;92.00;;;;;;5049978;28;20403;-69
2021/01/05 12:44:45;;;;;;;79.38;31.13;;;1.40;92.10;;;;;;5051691;28;20383;-69
2021/01/05 12:47:11;;;;;;;79.18;31.38;;;1.40;92.10;;;;;;5051477;28;20061;-69
2021/01/05 12:49:37;;;;;;;75.00;30.83;;;1.40;92.20;;;;;;5051866;28;20487;-69
2021/01/05 12:52:06;;;;;;;62.65;24.90;;;1.40;92.30;;;;;;5051033;28;20033;-69